sensor_id;sensor_type;location;lat;lon;timestamp;P1;durP1;ratioP1;P2;durP2;ratioP2
24216;SDS011;12356;49.386;8.688;2022-09-21T00:00:28;7.18;;;2.95;;
24216;SDS011;12356;49.386;8.688;2022-09-21T00:02:59;6.13;;;2.95;;
24216;SDS011;12356;49.386;8.688;2022-09-21T00:05:31;5.47;;;2.87;;
24216;SDS011;12356;49.386;8.688;2022-09-21T00:08:03;6.60;;;2.67;;
24216;SDS011;12356;49.386;8.688;2022-09-21T00:13:06;5.10;;;2.83;;
24216;SDS011;12356;49.386;8.688;2022-09-21T00:15:38;5.85;;;3.05;;
24216;SDS011;12356;49.386;8.688;2022-09-21T00:18:09;5.20;;;2.92;;
24216;SDS011;12356;49.386;8.688;2022-09-21T00:20:40;5.38;;;3.00;;
24216;SDS011;12356;49.386;8.688;2022-09-21T00:23:14;5.05;;;2.75;;
24216;SDS011;12356;49.386;8.688;2022-09-21T00:25:44;5.03;;;2.65;;
24216;SDS011;12356;49.386;8.688;2022-09-21T00:28:15;4.15;;;2.60;;
24216;SDS011;12356;49.386;8.688;2022-09-21T00:30:46;6.97;;;2.60;;
24216;SDS011;12356;49.386;8.688;2022-09-21T00:33:20;3.95;;;2.70;;
24216;SDS011;12356;49.386;8.688;2022-09-21T00:35:51;6.72;;;2.58;;
24216;SDS011;12356;49.386;8.688;2022-09-21T00:38:22;14.20;;;2.95;;
24216;SDS011;12356;49.386;8.688;2022-09-21T00:40:52;4.53;;;2.53;;
24216;SDS011;12356;49.386;8.688;2022-09-21T00:43:23;3.42;;;2.35;;
24216;SDS011;12356;49.386;8.688;2022-09-21T00:45:59;4.60;;;2.67;;
24216;SDS011;12356;49.386;8.688;2022-09-21T00:48:35;4.70;;;2.65;;
24216;SDS011;12356;49.386;8.688;2022-09-21T00:51:06;8.55;;;2.42;;
24216;SDS011;12356;49.386;8.688;2022-09-21T00:53:37;4.28;;;2.53;;
24216;SDS011;12356;49.386;8.688;2022-09-21T00:56:08;7.30;;;2.65;;
24216;SDS011;12356;49.386;8.688;2022-09-21T00:58:42;4.47;;;2.45;;
24216;SDS011;12356;49.386;8.688;2022-09-21T01:01:17;7.63;;;2.60;;
24216;SDS011;12356;49.386;8.688;2022-09-21T01:03:48;3.97;;;2.65;;
24216;SDS011;12356;49.386;8.688;2022-09-21T01:06:20;8.93;;;3.10;;
24216;SDS011;12356;49.386;8.688;2022-09-21T01:08:52;3.75;;;2.53;;
24216;SDS011;12356;49.386;8.688;2022-09-21T01:11:31;4.75;;;2.80;;
24216;SDS011;12356;49.386;8.688;2022-09-21T01:14:20;4.55;;;2.58;;
24216;SDS011;12356;49.386;8.688;2022-09-21T01:28:48;3.95;;;2.70;;
24216;SDS011;12356;49.386;8.688;2022-09-21T01:31:40;4.60;;;2.60;;
24216;SDS011;12356;49.386;8.688;2022-09-21T01:34:40;7.85;;;3.13;;
24216;SDS011;12356;49.386;8.688;2022-09-21T01:37:36;4.57;;;2.85;;
24216;SDS011;12356;49.386;8.688;2022-09-21T01:40:12;5.65;;;2.95;;
24216;SDS011;12356;49.386;8.688;2022-09-21T01:42:53;7.10;;;3.33;;
24216;SDS011;12356;49.386;8.688;2022-09-21T01:45:30;5.47;;;3.03;;
24216;SDS011;12356;49.386;8.688;2022-09-21T01:48:05;4.22;;;2.70;;
24216;SDS011;12356;49.386;8.688;2022-09-21T01:50:39;8.43;;;3.22;;
24216;SDS011;12356;49.386;8.688;2022-09-21T01:53:25;4.90;;;3.28;;
24216;SDS011;12356;49.386;8.688;2022-09-21T01:56:20;4.82;;;3.08;;
24216;SDS011;12356;49.386;8.688;2022-09-21T01:59:20;7.70;;;2.80;;
24216;SDS011;12356;49.386;8.688;2022-09-21T02:01:57;7.35;;;3.00;;
24216;SDS011;12356;49.386;8.688;2022-09-21T02:04:31;6.88;;;3.40;;
24216;SDS011;12356;49.386;8.688;2022-09-21T02:07:04;5.53;;;3.38;;
24216;SDS011;12356;49.386;8.688;2022-09-21T02:09:36;6.13;;;3.50;;
24216;SDS011;12356;49.386;8.688;2022-09-21T02:12:07;4.90;;;3.20;;
24216;SDS011;12356;49.386;8.688;2022-09-21T02:14:38;5.03;;;3.00;;
24216;SDS011;12356;49.386;8.688;2022-09-21T02:20:27;4.72;;;3.38;;
24216;SDS011;12356;49.386;8.688;2022-09-21T02:23:02;5.43;;;2.97;;
24216;SDS011;12356;49.386;8.688;2022-09-21T02:25:55;5.53;;;3.15;;
24216;SDS011;12356;49.386;8.688;2022-09-21T02:31:14;6.25;;;3.20;;
24216;SDS011;12356;49.386;8.688;2022-09-21T02:33:59;5.70;;;3.10;;
24216;SDS011;12356;49.386;8.688;2022-09-21T02:36:58;5.43;;;2.97;;
24216;SDS011;12356;49.386;8.688;2022-09-21T02:39:41;5.82;;;3.45;;
24216;SDS011;12356;49.386;8.688;2022-09-21T02:42:15;3.67;;;2.88;;
24216;SDS011;12356;49.386;8.688;2022-09-21T02:45:17;5.88;;;3.30;;
24216;SDS011;12356;49.386;8.688;2022-09-21T02:47:56;4.85;;;2.88;;
24216;SDS011;12356;49.386;8.688;2022-09-21T02:50:38;6.63;;;2.88;;
24216;SDS011;12356;49.386;8.688;2022-09-21T02:53:10;7.72;;;3.05;;
24216;SDS011;12356;49.386;8.688;2022-09-21T02:55:44;5.32;;;3.20;;
24216;SDS011;12356;49.386;8.688;2022-09-21T02:58:19;5.53;;;3.28;;
24216;SDS011;12356;49.386;8.688;2022-09-21T03:00:53;6.25;;;3.47;;
24216;SDS011;12356;49.386;8.688;2022-09-21T03:03:26;5.90;;;3.45;;
24216;SDS011;12356;49.386;8.688;2022-09-21T03:05:57;6.43;;;3.50;;
24216;SDS011;12356;49.386;8.688;2022-09-21T03:08:28;9.18;;;3.15;;
24216;SDS011;12356;49.386;8.688;2022-09-21T03:10:59;8.60;;;4.00;;
24216;SDS011;12356;49.386;8.688;2022-09-21T03:13:30;6.10;;;3.38;;
24216;SDS011;12356;49.386;8.688;2022-09-21T03:16:02;7.43;;;3.90;;
24216;SDS011;12356;49.386;8.688;2022-09-21T03:18:34;8.15;;;4.30;;
24216;SDS011;12356;49.386;8.688;2022-09-21T03:21:05;8.02;;;3.90;;
24216;SDS011;12356;49.386;8.688;2022-09-21T03:23:35;8.80;;;4.47;;
24216;SDS011;12356;49.386;8.688;2022-09-21T03:26:06;6.70;;;3.92;;
24216;SDS011;12356;49.386;8.688;2022-09-21T03:28:37;8.57;;;4.20;;
24216;SDS011;12356;49.386;8.688;2022-09-21T03:31:08;8.68;;;4.63;;
24216;SDS011;12356;49.386;8.688;2022-09-21T03:33:39;7.18;;;4.50;;
24216;SDS011;12356;49.386;8.688;2022-09-21T03:36:10;7.25;;;4.55;;
24216;SDS011;12356;49.386;8.688;2022-09-21T03:38:40;9.57;;;4.47;;
24216;SDS011;12356;49.386;8.688;2022-09-21T03:41:11;7.05;;;4.30;;
24216;SDS011;12356;49.386;8.688;2022-09-21T03:43:44;7.18;;;4.68;;
24216;SDS011;12356;49.386;8.688;2022-09-21T03:46:14;7.47;;;3.95;;
24216;SDS011;12356;49.386;8.688;2022-09-21T03:48:46;6.32;;;3.95;;
24216;SDS011;12356;49.386;8.688;2022-09-21T03:53:49;9.75;;;4.10;;
24216;SDS011;12356;49.386;8.688;2022-09-21T03:56:19;6.72;;;4.55;;
24216;SDS011;12356;49.386;8.688;2022-09-21T03:58:50;6.13;;;4.47;;
24216;SDS011;12356;49.386;8.688;2022-09-21T04:01:21;7.57;;;4.90;;
24216;SDS011;12356;49.386;8.688;2022-09-21T04:03:51;7.07;;;4.28;;
24216;SDS011;12356;49.386;8.688;2022-09-21T04:06:22;5.88;;;4.32;;
24216;SDS011;12356;49.386;8.688;2022-09-21T04:08:52;7.35;;;4.35;;
24216;SDS011;12356;49.386;8.688;2022-09-21T04:11:25;8.52;;;5.35;;
24216;SDS011;12356;49.386;8.688;2022-09-21T04:13:55;31.67;;;17.33;;
24216;SDS011;12356;49.386;8.688;2022-09-21T04:16:27;28.45;;;16.40;;
24216;SDS011;12356;49.386;8.688;2022-09-21T04:18:58;27.83;;;15.98;;
24216;SDS011;12356;49.386;8.688;2022-09-21T04:21:29;24.63;;;14.32;;
24216;SDS011;12356;49.386;8.688;2022-09-21T04:23:59;18.70;;;10.65;;
24216;SDS011;12356;49.386;8.688;2022-09-21T04:26:31;19.10;;;9.80;;
24216;SDS011;12356;49.386;8.688;2022-09-21T04:29:03;11.45;;;7.03;;
24216;SDS011;12356;49.386;8.688;2022-09-21T04:31:36;13.98;;;7.70;;
24216;SDS011;12356;49.386;8.688;2022-09-21T04:34:08;11.35;;;6.88;;
24216;SDS011;12356;49.386;8.688;2022-09-21T04:36:42;11.88;;;6.15;;
24216;SDS011;12356;49.386;8.688;2022-09-21T04:39:12;12.50;;;6.75;;
24216;SDS011;12356;49.386;8.688;2022-09-21T04:41:43;11.15;;;6.18;;
24216;SDS011;12356;49.386;8.688;2022-09-21T04:44:14;12.30;;;6.03;;
24216;SDS011;12356;49.386;8.688;2022-09-21T04:46:45;9.02;;;5.82;;
24216;SDS011;12356;49.386;8.688;2022-09-21T04:49:15;8.63;;;5.07;;
24216;SDS011;12356;49.386;8.688;2022-09-21T04:51:46;10.60;;;5.43;;
24216;SDS011;12356;49.386;8.688;2022-09-21T04:54:17;9.05;;;5.55;;
24216;SDS011;12356;49.386;8.688;2022-09-21T04:56:48;10.77;;;6.20;;
24216;SDS011;12356;49.386;8.688;2022-09-21T04:59:18;7.93;;;5.35;;
24216;SDS011;12356;49.386;8.688;2022-09-21T05:01:49;10.27;;;5.35;;
24216;SDS011;12356;49.386;8.688;2022-09-21T05:04:19;7.35;;;4.80;;
24216;SDS011;12356;49.386;8.688;2022-09-21T05:06:50;9.02;;;5.45;;
24216;SDS011;12356;49.386;8.688;2022-09-21T05:09:20;11.15;;;5.35;;
24216;SDS011;12356;49.386;8.688;2022-09-21T05:12:10;7.13;;;5.28;;
24216;SDS011;12356;49.386;8.688;2022-09-21T05:14:41;7.55;;;5.30;;
24216;SDS011;12356;49.386;8.688;2022-09-21T05:17:13;11.63;;;5.18;;
24216;SDS011;12356;49.386;8.688;2022-09-21T05:19:43;7.70;;;5.10;;
24216;SDS011;12356;49.386;8.688;2022-09-21T05:22:14;7.53;;;5.03;;
24216;SDS011;12356;49.386;8.688;2022-09-21T05:24:45;7.88;;;5.45;;
24216;SDS011;12356;49.386;8.688;2022-09-21T05:27:16;8.85;;;5.18;;
24216;SDS011;12356;49.386;8.688;2022-09-21T05:29:46;8.13;;;5.38;;
24216;SDS011;12356;49.386;8.688;2022-09-21T05:32:27;13.77;;;5.75;;
24216;SDS011;12356;49.386;8.688;2022-09-21T05:38:13;8.93;;;5.32;;
24216;SDS011;12356;49.386;8.688;2022-09-21T05:40:48;10.90;;;5.20;;
24216;SDS011;12356;49.386;8.688;2022-09-21T05:43:19;7.85;;;4.95;;
24216;SDS011;12356;49.386;8.688;2022-09-21T05:49:02;8.00;;;4.80;;
24216;SDS011;12356;49.386;8.688;2022-09-21T05:52:08;8.02;;;4.90;;
24216;SDS011;12356;49.386;8.688;2022-09-21T06:03:30;7.55;;;5.05;;
24216;SDS011;12356;49.386;8.688;2022-09-21T06:06:06;8.63;;;4.90;;
24216;SDS011;12356;49.386;8.688;2022-09-21T06:08:37;9.98;;;5.00;;
24216;SDS011;12356;49.386;8.688;2022-09-21T06:11:08;10.15;;;5.13;;
24216;SDS011;12356;49.386;8.688;2022-09-21T06:13:39;9.55;;;5.68;;
24216;SDS011;12356;49.386;8.688;2022-09-21T06:16:12;8.80;;;5.20;;
24216;SDS011;12356;49.386;8.688;2022-09-21T06:18:43;8.80;;;5.65;;
24216;SDS011;12356;49.386;8.688;2022-09-21T06:21:14;10.73;;;5.60;;
24216;SDS011;12356;49.386;8.688;2022-09-21T06:23:44;13.40;;;5.65;;
24216;SDS011;12356;49.386;8.688;2022-09-21T06:26:15;10.65;;;4.78;;
24216;SDS011;12356;49.386;8.688;2022-09-21T06:28:46;11.23;;;5.47;;
24216;SDS011;12356;49.386;8.688;2022-09-21T06:31:17;8.57;;;4.88;;
24216;SDS011;12356;49.386;8.688;2022-09-21T06:33:47;7.25;;;4.60;;
24216;SDS011;12356;49.386;8.688;2022-09-21T06:36:18;6.78;;;4.53;;
24216;SDS011;12356;49.386;8.688;2022-09-21T06:38:50;8.77;;;5.03;;
24216;SDS011;12356;49.386;8.688;2022-09-21T06:41:22;7.80;;;4.55;;
24216;SDS011;12356;49.386;8.688;2022-09-21T06:43:53;10.17;;;5.53;;
24216;SDS011;12356;49.386;8.688;2022-09-21T06:46:26;16.95;;;5.20;;
24216;SDS011;12356;49.386;8.688;2022-09-21T06:48:56;7.47;;;4.53;;
24216;SDS011;12356;49.386;8.688;2022-09-21T06:51:27;9.00;;;5.10;;
24216;SDS011;12356;49.386;8.688;2022-09-21T06:53:57;9.10;;;5.45;;
24216;SDS011;12356;49.386;8.688;2022-09-21T06:56:28;10.77;;;5.80;;
24216;SDS011;12356;49.386;8.688;2022-09-21T06:58:59;10.52;;;5.10;;
24216;SDS011;12356;49.386;8.688;2022-09-21T07:01:29;9.18;;;4.97;;
24216;SDS011;12356;49.386;8.688;2022-09-21T07:04:00;8.35;;;5.68;;
24216;SDS011;12356;49.386;8.688;2022-09-21T07:06:32;11.77;;;6.15;;
24216;SDS011;12356;49.386;8.688;2022-09-21T07:09:03;16.60;;;6.40;;
24216;SDS011;12356;49.386;8.688;2022-09-21T07:11:33;44.30;;;7.60;;
24216;SDS011;12356;49.386;8.688;2022-09-21T07:14:04;16.15;;;6.50;;
24216;SDS011;12356;49.386;8.688;2022-09-21T07:16:35;23.08;;;13.63;;
24216;SDS011;12356;49.386;8.688;2022-09-21T07:19:06;11.63;;;7.70;;
24216;SDS011;12356;49.386;8.688;2022-09-21T07:21:36;14.32;;;6.97;;
24216;SDS011;12356;49.386;8.688;2022-09-21T07:24:07;12.05;;;7.05;;
24216;SDS011;12356;49.386;8.688;2022-09-21T07:26:38;12.88;;;8.23;;
24216;SDS011;12356;49.386;8.688;2022-09-21T07:29:09;16.90;;;8.05;;
24216;SDS011;12356;49.386;8.688;2022-09-21T07:31:42;14.43;;;7.82;;
24216;SDS011;12356;49.386;8.688;2022-09-21T07:34:14;10.85;;;8.05;;
24216;SDS011;12356;49.386;8.688;2022-09-21T07:36:44;14.43;;;8.25;;
24216;SDS011;12356;49.386;8.688;2022-09-21T07:39:15;10.40;;;7.97;;
24216;SDS011;12356;49.386;8.688;2022-09-21T07:41:45;19.60;;;12.38;;
24216;SDS011;12356;49.386;8.688;2022-09-21T07:44:17;19.60;;;10.82;;
24216;SDS011;12356;49.386;8.688;2022-09-21T07:46:49;19.50;;;10.88;;
24216;SDS011;12356;49.386;8.688;2022-09-21T07:49:20;14.32;;;9.65;;
24216;SDS011;12356;49.386;8.688;2022-09-21T07:51:51;14.07;;;8.40;;
24216;SDS011;12356;49.386;8.688;2022-09-21T07:54:22;15.07;;;7.40;;
24216;SDS011;12356;49.386;8.688;2022-09-21T07:56:52;10.50;;;6.63;;
24216;SDS011;12356;49.386;8.688;2022-09-21T07:59:41;8.65;;;5.28;;
24216;SDS011;12356;49.386;8.688;2022-09-21T08:02:12;13.65;;;6.88;;
24216;SDS011;12356;49.386;8.688;2022-09-21T08:04:43;8.93;;;6.18;;
24216;SDS011;12356;49.386;8.688;2022-09-21T08:07:13;14.65;;;6.88;;
24216;SDS011;12356;49.386;8.688;2022-09-21T08:09:44;14.68;;;7.78;;
24216;SDS011;12356;49.386;8.688;2022-09-21T08:12:18;13.30;;;7.47;;
24216;SDS011;12356;49.386;8.688;2022-09-21T08:14:49;12.90;;;7.20;;
24216;SDS011;12356;49.386;8.688;2022-09-21T08:17:20;12.68;;;8.27;;
24216;SDS011;12356;49.386;8.688;2022-09-21T08:22:24;19.08;;;8.60;;
24216;SDS011;12356;49.386;8.688;2022-09-21T08:24:55;11.07;;;7.47;;
24216;SDS011;12356;49.386;8.688;2022-09-21T08:27:26;11.55;;;6.90;;
24216;SDS011;12356;49.386;8.688;2022-09-21T08:29:57;13.95;;;6.40;;
24216;SDS011;12356;49.386;8.688;2022-09-21T08:32:29;11.98;;;5.82;;
24216;SDS011;12356;49.386;8.688;2022-09-21T08:35:00;23.15;;;12.20;;
24216;SDS011;12356;49.386;8.688;2022-09-21T08:37:30;11.23;;;6.75;;
24216;SDS011;12356;49.386;8.688;2022-09-21T08:40:03;17.85;;;6.57;;
24216;SDS011;12356;49.386;8.688;2022-09-21T08:42:44;11.85;;;5.30;;
24216;SDS011;12356;49.386;8.688;2022-09-21T08:45:45;9.90;;;5.22;;
24216;SDS011;12356;49.386;8.688;2022-09-21T08:50:53;19.65;;;5.55;;
24216;SDS011;12356;49.386;8.688;2022-09-21T08:53:31;9.23;;;4.78;;
24216;SDS011;12356;49.386;8.688;2022-09-21T08:56:12;8.70;;;5.47;;
24216;SDS011;12356;49.386;8.688;2022-09-21T08:58:45;9.45;;;5.43;;
24216;SDS011;12356;49.386;8.688;2022-09-21T09:04:14;8.82;;;5.05;;
24216;SDS011;12356;49.386;8.688;2022-09-21T09:10:12;12.43;;;5.30;;
24216;SDS011;12356;49.386;8.688;2022-09-21T09:15:30;11.20;;;5.07;;
24216;SDS011;12356;49.386;8.688;2022-09-21T09:18:35;14.23;;;4.68;;
24216;SDS011;12356;49.386;8.688;2022-09-21T09:21:19;6.60;;;4.18;;
24216;SDS011;12356;49.386;8.688;2022-09-21T09:24:01;8.90;;;4.20;;
24216;SDS011;12356;49.386;8.688;2022-09-21T09:29:30;8.93;;;3.70;;
24216;SDS011;12356;49.386;8.688;2022-09-21T09:32:11;9.63;;;3.42;;
24216;SDS011;12356;49.386;8.688;2022-09-21T09:37:54;8.20;;;3.22;;
24216;SDS011;12356;49.386;8.688;2022-09-21T09:52:05;6.55;;;3.17;;
24216;SDS011;12356;49.386;8.688;2022-09-21T09:54:39;10.70;;;2.60;;
24216;SDS011;12356;49.386;8.688;2022-09-21T09:57:12;5.72;;;2.63;;
24216;SDS011;12356;49.386;8.688;2022-09-21T09:59:49;6.35;;;3.50;;
24216;SDS011;12356;49.386;8.688;2022-09-21T10:02:25;5.43;;;3.13;;
24216;SDS011;12356;49.386;8.688;2022-09-21T10:05:00;7.47;;;3.10;;
24216;SDS011;12356;49.386;8.688;2022-09-21T10:07:38;7.25;;;3.53;;
24216;SDS011;12356;49.386;8.688;2022-09-21T10:15:42;8.50;;;4.32;;
24216;SDS011;12356;49.386;8.688;2022-09-21T10:21:15;8.80;;;4.07;;
24216;SDS011;12356;49.386;8.688;2022-09-21T10:23:50;6.72;;;4.10;;
24216;SDS011;12356;49.386;8.688;2022-09-21T10:26:43;7.68;;;4.13;;
24216;SDS011;12356;49.386;8.688;2022-09-21T10:35:27;6.15;;;3.50;;
24216;SDS011;12356;49.386;8.688;2022-09-21T10:37:42;5.28;;;3.80;;
24216;SDS011;12356;49.386;8.688;2022-09-21T10:42:51;7.18;;;3.58;;
24216;SDS011;12356;49.386;8.688;2022-09-21T10:45:29;6.25;;;3.20;;
24216;SDS011;12356;49.386;8.688;2022-09-21T10:50:39;5.15;;;2.67;;
24216;SDS011;12356;49.386;8.688;2022-09-21T10:53:18;5.00;;;2.50;;
24216;SDS011;12356;49.386;8.688;2022-09-21T10:58:36;5.72;;;2.63;;
24216;SDS011;12356;49.386;8.688;2022-09-21T11:01:12;4.73;;;2.60;;
24216;SDS011;12356;49.386;8.688;2022-09-21T11:04:04;5.75;;;2.80;;
24216;SDS011;12356;49.386;8.688;2022-09-21T11:06:44;4.43;;;2.60;;
24216;SDS011;12356;49.386;8.688;2022-09-21T11:09:25;8.95;;;2.65;;
24216;SDS011;12356;49.386;8.688;2022-09-21T11:12:38;7.53;;;2.60;;
24216;SDS011;12356;49.386;8.688;2022-09-21T11:29:15;5.45;;;2.10;;
24216;SDS011;12356;49.386;8.688;2022-09-21T11:32:03;5.43;;;1.90;;
24216;SDS011;12356;49.386;8.688;2022-09-21T11:35:02;2.88;;;1.50;;
24216;SDS011;12356;49.386;8.688;2022-09-21T11:38:11;2.95;;;1.63;;
24216;SDS011;12356;49.386;8.688;2022-09-21T11:54:49;5.72;;;1.85;;
24216;SDS011;12356;49.386;8.688;2022-09-21T11:57:51;2.72;;;1.70;;
24216;SDS011;12356;49.386;8.688;2022-09-21T12:00:33;3.13;;;1.95;;
24216;SDS011;12356;49.386;8.688;2022-09-21T12:15:22;4.55;;;1.83;;
24216;SDS011;12356;49.386;8.688;2022-09-21T12:18:06;4.28;;;1.70;;
24216;SDS011;12356;49.386;8.688;2022-09-21T12:26:24;2.60;;;1.20;;
24216;SDS011;12356;49.386;8.688;2022-09-21T12:29:01;2.63;;;1.00;;
24216;SDS011;12356;49.386;8.688;2022-09-21T12:31:41;0.68;;;0.50;;
24216;SDS011;12356;49.386;8.688;2022-09-21T12:34:21;0.65;;;0.50;;
24216;SDS011;12356;49.386;8.688;2022-09-21T12:40:24;2.20;;;0.55;;
24216;SDS011;12356;49.386;8.688;2022-09-21T12:46:00;2.80;;;0.50;;
24216;SDS011;12356;49.386;8.688;2022-09-21T12:48:39;0.60;;;0.50;;
24216;SDS011;12356;49.386;8.688;2022-09-21T12:51:19;5.57;;;0.50;;
24216;SDS011;12356;49.386;8.688;2022-09-21T12:53:59;1.95;;;0.50;;
24216;SDS011;12356;49.386;8.688;2022-09-21T12:56:47;1.27;;;0.60;;
24216;SDS011;12356;49.386;8.688;2022-09-21T12:59:51;0.55;;;0.40;;
24216;SDS011;12356;49.386;8.688;2022-09-21T13:02:34;3.22;;;0.50;;
24216;SDS011;12356;49.386;8.688;2022-09-21T13:05:32;1.20;;;0.60;;
24216;SDS011;12356;49.386;8.688;2022-09-21T13:08:30;1.13;;;0.60;;
24216;SDS011;12356;49.386;8.688;2022-09-21T13:11:06;1.15;;;0.50;;
24216;SDS011;12356;49.386;8.688;2022-09-21T13:13:47;1.83;;;0.50;;
24216;SDS011;12356;49.386;8.688;2022-09-21T13:16:26;2.05;;;0.60;;
24216;SDS011;12356;49.386;8.688;2022-09-21T13:18:59;1.65;;;0.50;;
24216;SDS011;12356;49.386;8.688;2022-09-21T13:21:31;1.60;;;0.57;;
24216;SDS011;12356;49.386;8.688;2022-09-21T13:24:06;0.80;;;0.50;;
24216;SDS011;12356;49.386;8.688;2022-09-21T13:26:57;1.75;;;0.50;;
24216;SDS011;12356;49.386;8.688;2022-09-21T13:29:32;0.75;;;0.50;;
24216;SDS011;12356;49.386;8.688;2022-09-21T13:34:43;7.10;;;0.65;;
24216;SDS011;12356;49.386;8.688;2022-09-21T13:47:53;1.45;;;0.50;;
24216;SDS011;12356;49.386;8.688;2022-09-21T13:50:40;0.60;;;0.60;;
24216;SDS011;12356;49.386;8.688;2022-09-21T13:53:16;1.00;;;0.57;;
24216;SDS011;12356;49.386;8.688;2022-09-21T13:55:54;2.00;;;0.50;;
24216;SDS011;12356;49.386;8.688;2022-09-21T13:58:32;0.65;;;0.50;;
24216;SDS011;12356;49.386;8.688;2022-09-21T14:01:13;1.85;;;0.40;;
24216;SDS011;12356;49.386;8.688;2022-09-21T14:06:26;0.90;;;0.50;;
24216;SDS011;12356;49.386;8.688;2022-09-21T14:09:04;4.22;;;0.57;;
24216;SDS011;12356;49.386;8.688;2022-09-21T14:11:38;3.50;;;0.50;;
24216;SDS011;12356;49.386;8.688;2022-09-21T14:14:16;0.60;;;0.47;;
24216;SDS011;12356;49.386;8.688;2022-09-21T14:16:56;1.05;;;0.43;;
24216;SDS011;12356;49.386;8.688;2022-09-21T14:24:36;0.40;;;0.40;;
24216;SDS011;12356;49.386;8.688;2022-09-21T14:27:31;1.10;;;0.50;;
24216;SDS011;12356;49.386;8.688;2022-09-21T14:35:31;2.58;;;0.60;;
24216;SDS011;12356;49.386;8.688;2022-09-21T14:38:12;2.70;;;0.60;;
24216;SDS011;12356;49.386;8.688;2022-09-21T14:40:48;0.95;;;0.50;;
24216;SDS011;12356;49.386;8.688;2022-09-21T14:43:31;0.70;;;0.50;;
24216;SDS011;12356;49.386;8.688;2022-09-21T14:46:48;0.63;;;0.60;;
24216;SDS011;12356;49.386;8.688;2022-09-21T14:52:11;0.52;;;0.40;;
24216;SDS011;12356;49.386;8.688;2022-09-21T15:00:36;1.50;;;0.57;;
24216;SDS011;12356;49.386;8.688;2022-09-21T15:15:34;1.80;;;0.63;;
24216;SDS011;12356;49.386;8.688;2022-09-21T15:18:20;0.93;;;0.40;;
24216;SDS011;12356;49.386;8.688;2022-09-21T15:20:59;0.40;;;0.40;;
24216;SDS011;12356;49.386;8.688;2022-09-21T15:23:33;1.30;;;0.52;;
24216;SDS011;12356;49.386;8.688;2022-09-21T15:26:29;1.08;;;0.50;;
24216;SDS011;12356;49.386;8.688;2022-09-21T15:29:02;1.17;;;0.40;;
24216;SDS011;12356;49.386;8.688;2022-09-21T15:31:37;0.50;;;0.50;;
24216;SDS011;12356;49.386;8.688;2022-09-21T15:34:11;0.90;;;0.50;;
24216;SDS011;12356;49.386;8.688;2022-09-21T15:36:44;1.13;;;0.50;;
24216;SDS011;12356;49.386;8.688;2022-09-21T15:39:27;0.50;;;0.50;;
24216;SDS011;12356;49.386;8.688;2022-09-21T15:42:18;0.67;;;0.50;;
24216;SDS011;12356;49.386;8.688;2022-09-21T15:44:53;0.60;;;0.50;;
24216;SDS011;12356;49.386;8.688;2022-09-21T15:47:45;0.60;;;0.50;;
24216;SDS011;12356;49.386;8.688;2022-09-21T15:50:15;0.50;;;0.50;;
24216;SDS011;12356;49.386;8.688;2022-09-21T15:52:53;2.05;;;0.60;;
24216;SDS011;12356;49.386;8.688;2022-09-21T15:55:29;1.27;;;0.50;;
24216;SDS011;12356;49.386;8.688;2022-09-21T15:58:02;2.75;;;0.68;;
24216;SDS011;12356;49.386;8.688;2022-09-21T16:01:08;0.50;;;0.50;;
24216;SDS011;12356;49.386;8.688;2022-09-21T16:03:41;1.15;;;0.65;;
24216;SDS011;12356;49.386;8.688;2022-09-21T16:06:34;0.73;;;0.50;;
24216;SDS011;12356;49.386;8.688;2022-09-21T16:11:54;1.58;;;0.70;;
24216;SDS011;12356;49.386;8.688;2022-09-21T16:14:25;0.90;;;0.60;;
24216;SDS011;12356;49.386;8.688;2022-09-21T16:28:04;1.20;;;0.60;;
24216;SDS011;12356;49.386;8.688;2022-09-21T16:30:48;1.08;;;0.52;;
24216;SDS011;12356;49.386;8.688;2022-09-21T16:38:49;1.85;;;0.50;;
24216;SDS011;12356;49.386;8.688;2022-09-21T16:44:03;0.65;;;0.60;;
24216;SDS011;12356;49.386;8.688;2022-09-21T16:46:33;1.65;;;0.70;;
24216;SDS011;12356;49.386;8.688;2022-09-21T16:49:06;3.55;;;0.80;;
24216;SDS011;12356;49.386;8.688;2022-09-21T16:51:43;0.68;;;0.63;;
24216;SDS011;12356;49.386;8.688;2022-09-21T16:54:16;0.77;;;0.50;;
24216;SDS011;12356;49.386;8.688;2022-09-21T16:56:48;0.82;;;0.60;;
24216;SDS011;12356;49.386;8.688;2022-09-21T16:59:18;1.83;;;0.70;;
24216;SDS011;12356;49.386;8.688;2022-09-21T17:01:54;0.75;;;0.60;;
24216;SDS011;12356;49.386;8.688;2022-09-21T17:04:27;1.17;;;0.52;;
24216;SDS011;12356;49.386;8.688;2022-09-21T17:06:59;1.40;;;0.80;;
24216;SDS011;12356;49.386;8.688;2022-09-21T17:12:12;0.52;;;0.50;;
24216;SDS011;12356;49.386;8.688;2022-09-21T17:14:44;0.70;;;0.70;;
24216;SDS011;12356;49.386;8.688;2022-09-21T17:17:16;0.52;;;0.52;;
24216;SDS011;12356;49.386;8.688;2022-09-21T17:19:49;2.17;;;0.60;;
24216;SDS011;12356;49.386;8.688;2022-09-21T17:22:22;0.82;;;0.70;;
24216;SDS011;12356;49.386;8.688;2022-09-21T17:24:54;1.85;;;0.60;;
24216;SDS011;12356;49.386;8.688;2022-09-21T17:27:25;0.80;;;0.70;;
24216;SDS011;12356;49.386;8.688;2022-09-21T17:29:56;2.35;;;0.70;;
24216;SDS011;12356;49.386;8.688;2022-09-21T17:32:29;0.82;;;0.70;;
24216;SDS011;12356;49.386;8.688;2022-09-21T17:35:10;1.08;;;0.80;;
24216;SDS011;12356;49.386;8.688;2022-09-21T17:37:46;1.92;;;0.90;;
24216;SDS011;12356;49.386;8.688;2022-09-21T17:40:17;0.60;;;0.60;;
24216;SDS011;12356;49.386;8.688;2022-09-21T17:42:47;2.00;;;0.60;;
24216;SDS011;12356;49.386;8.688;2022-09-21T17:48:01;0.73;;;0.73;;
24216;SDS011;12356;49.386;8.688;2022-09-21T17:50:32;1.73;;;0.60;;
24216;SDS011;12356;49.386;8.688;2022-09-21T17:53:03;1.30;;;0.82;;
24216;SDS011;12356;49.386;8.688;2022-09-21T17:55:53;1.33;;;0.88;;
24216;SDS011;12356;49.386;8.688;2022-09-21T18:01:35;1.67;;;1.00;;
24216;SDS011;12356;49.386;8.688;2022-09-21T18:04:10;1.98;;;1.10;;
24216;SDS011;12356;49.386;8.688;2022-09-21T18:06:41;1.65;;;0.73;;
24216;SDS011;12356;49.386;8.688;2022-09-21T18:09:11;0.98;;;0.88;;
24216;SDS011;12356;49.386;8.688;2022-09-21T18:11:46;2.60;;;0.90;;
24216;SDS011;12356;49.386;8.688;2022-09-21T18:14:51;1.35;;;0.95;;
24216;SDS011;12356;49.386;8.688;2022-09-21T18:17:45;1.05;;;0.90;;
24216;SDS011;12356;49.386;8.688;2022-09-21T18:20:55;2.17;;;0.93;;
24216;SDS011;12356;49.386;8.688;2022-09-21T18:23:51;0.90;;;0.85;;
24216;SDS011;12356;49.386;8.688;2022-09-21T18:26:40;0.90;;;0.80;;
24216;SDS011;12356;49.386;8.688;2022-09-21T18:29:19;1.83;;;1.10;;
24216;SDS011;12356;49.386;8.688;2022-09-21T18:32:17;1.40;;;1.10;;
24216;SDS011;12356;49.386;8.688;2022-09-21T18:35:07;2.78;;;1.13;;
24216;SDS011;12356;49.386;8.688;2022-09-21T18:46:18;3.28;;;1.00;;
24216;SDS011;12356;49.386;8.688;2022-09-21T18:51:53;0.93;;;0.80;;
24216;SDS011;12356;49.386;8.688;2022-09-21T18:54:36;4.57;;;1.05;;
24216;SDS011;12356;49.386;8.688;2022-09-21T18:57:08;2.35;;;0.93;;
24216;SDS011;12356;49.386;8.688;2022-09-21T18:59:42;3.33;;;1.00;;
24216;SDS011;12356;49.386;8.688;2022-09-21T19:02:14;3.90;;;1.00;;
24216;SDS011;12356;49.386;8.688;2022-09-21T19:04:49;3.30;;;0.90;;
24216;SDS011;12356;49.386;8.688;2022-09-21T19:10:16;1.90;;;1.10;;
24216;SDS011;12356;49.386;8.688;2022-09-21T19:13:12;2.20;;;1.33;;
24216;SDS011;12356;49.386;8.688;2022-09-21T19:16:27;7.25;;;1.35;;
24216;SDS011;12356;49.386;8.688;2022-09-21T19:19:07;6.22;;;1.20;;
24216;SDS011;12356;49.386;8.688;2022-09-21T19:22:05;1.50;;;1.10;;
24216;SDS011;12356;49.386;8.688;2022-09-21T19:27:25;2.83;;;1.30;;
24216;SDS011;12356;49.386;8.688;2022-09-21T19:30:15;2.65;;;1.05;;
24216;SDS011;12356;49.386;8.688;2022-09-21T19:35:28;1.50;;;1.10;;
24216;SDS011;12356;49.386;8.688;2022-09-21T19:38:01;2.78;;;1.00;;
24216;SDS011;12356;49.386;8.688;2022-09-21T19:40:33;2.22;;;1.00;;
24216;SDS011;12356;49.386;8.688;2022-09-21T19:43:15;1.65;;;1.08;;